Peaks Island, Maine
Current Conditions -  °F | °C
As of 2:56 PM on Monday 24 Nov 2014 (Local Time) from KPWM Reporting Station
Moderate Fog Moderate Fog  
Wind Chill: 57°   Ceiling: 200
Heat Index: 57°   Visibility: 0.25mi
Dew Point: 56°   Wind: 9mph
Humidity: 96%   Direction: 200°SSW
Pressure: 29.58"   Gusts: 20mph
Location:  43.66°N, 70.2°W
Report Text: KPWM 241956Z 20008G17KT 1/4SM FG VV002 14/13 A2958 RMK AO2 T01390133
Loading
Personal Weather Stations






























Interactive Weather Map New forecast layout! Learn more

10-Day Weather Forecast

Advertisements
Track Severe Weather on mobile